sensor_id;sensor_type;location;lat;lon;timestamp;pressure;altitude;pressure_sealevel;temperature;humidity
35151;BME280;55720;51.972;4.624;2023-04-03T00:01:33;102884.84;;;2.29;100.00
35151;BME280;55720;51.972;4.624;2023-04-03T00:03:59;102891.19;;;2.23;100.00
35151;BME280;55720;51.972;4.624;2023-04-03T00:06:25;102890.25;;;2.47;100.00
35151;BME280;55720;51.972;4.624;2023-04-03T00:08:51;102907.72;;;2.52;100.00
35151;BME280;55720;51.972;4.624;2023-04-03T00:11:17;102914.94;;;2.58;100.00
35151;BME280;55720;51.972;4.624;2023-04-03T00:13:43;102925.84;;;2.69;100.00
35151;BME280;55720;51.972;4.624;2023-04-03T00:16:10;102936.31;;;2.66;100.00
35151;BME280;55720;51.972;4.624;2023-04-03T00:18:39;102957.06;;;2.60;100.00
35151;BME280;55720;51.972;4.624;2023-04-03T00:21:05;102959.59;;;2.55;100.00
35151;BME280;55720;51.972;4.624;2023-04-03T00:23:31;102970.00;;;2.58;100.00
35151;BME280;55720;51.972;4.624;2023-04-03T00:25:56;102981.97;;;2.69;100.00
35151;BME280;55720;51.972;4.624;2023-04-03T00:28:22;102990.19;;;2.62;100.00
35151;BME280;55720;51.972;4.624;2023-04-03T00:30:49;103001.69;;;2.58;100.00
35151;BME280;55720;51.972;4.624;2023-04-03T00:33:15;103000.19;;;2.62;100.00
35151;BME280;55720;51.972;4.624;2023-04-03T00:35:41;103005.03;;;2.60;100.00
35151;BME280;55720;51.972;4.624;2023-04-03T00:38:06;103010.91;;;2.57;100.00
35151;BME280;55720;51.972;4.624;2023-04-03T00:40:38;103016.34;;;2.57;100.00
35151;BME280;55720;51.972;4.624;2023-04-03T00:43:15;103021.06;;;2.61;100.00
35151;BME280;55720;51.972;4.624;2023-04-03T00:45:52;103027.56;;;2.60;100.00
35151;BME280;55720;51.972;4.624;2023-04-03T00:48:28;103031.41;;;2.53;100.00
35151;BME280;55720;51.972;4.624;2023-04-03T00:50:54;103035.34;;;2.32;100.00
35151;BME280;55720;51.972;4.624;2023-04-03T00:53:49;103035.13;;;2.33;100.00
35151;BME280;55720;51.972;4.624;2023-04-03T00:56:22;103036.91;;;2.21;100.00
35151;BME280;55720;51.972;4.624;2023-04-03T00:59:21;103048.28;;;2.12;100.00
35151;BME280;55720;51.972;4.624;2023-04-03T01:01:48;103038.59;;;2.22;100.00
35151;BME280;55720;51.972;4.624;2023-04-03T01:04:35;103042.97;;;2.23;100.00
35151;BME280;55720;51.972;4.624;2023-04-03T01:07:04;103050.78;;;2.13;100.00
35151;BME280;55720;51.972;4.624;2023-04-03T01:09:32;103055.03;;;2.03;100.00
35151;BME280;55720;51.972;4.624;2023-04-03T01:14:46;103052.09;;;2.04;100.00
35151;BME280;55720;51.972;4.624;2023-04-03T01:17:29;103052.16;;;1.97;100.00
35151;BME280;55720;51.972;4.624;2023-04-03T01:23:32;103052.66;;;1.88;100.00
35151;BME280;55720;51.972;4.624;2023-04-03T01:26:03;103047.66;;;1.85;100.00
35151;BME280;55720;51.972;4.624;2023-04-03T01:28:34;103045.72;;;1.92;100.00
35151;BME280;55720;51.972;4.624;2023-04-03T01:31:22;103043.00;;;1.92;100.00
35151;BME280;55720;51.972;4.624;2023-04-03T01:33:50;103045.19;;;1.83;100.00
35151;BME280;55720;51.972;4.624;2023-04-03T01:36:23;103041.59;;;1.89;100.00
35151;BME280;55720;51.972;4.624;2023-04-03T01:38:49;103048.72;;;1.84;100.00
35151;BME280;55720;51.972;4.624;2023-04-03T01:41:15;103052.47;;;1.83;100.00
35151;BME280;55720;51.972;4.624;2023-04-03T01:43:41;103043.78;;;1.74;100.00
35151;BME280;55720;51.972;4.624;2023-04-03T01:46:07;103041.13;;;1.68;100.00
35151;BME280;55720;51.972;4.624;2023-04-03T01:48:33;103033.91;;;1.62;100.00
35151;BME280;55720;51.972;4.624;2023-04-03T01:50:58;103044.19;;;1.46;100.00
35151;BME280;55720;51.972;4.624;2023-04-03T01:53:24;103040.00;;;1.51;100.00
35151;BME280;55720;51.972;4.624;2023-04-03T01:55:49;103026.47;;;1.51;100.00
35151;BME280;55720;51.972;4.624;2023-04-03T01:58:15;103028.78;;;1.47;100.00
35151;BME280;55720;51.972;4.624;2023-04-03T02:00:40;103030.09;;;1.38;100.00
35151;BME280;55720;51.972;4.624;2023-04-03T02:03:06;103021.41;;;1.29;100.00
35151;BME280;55720;51.972;4.624;2023-04-03T02:05:32;103031.91;;;1.13;100.00
35151;BME280;55720;51.972;4.624;2023-04-03T02:07:58;103022.16;;;1.05;100.00
35151;BME280;55720;51.972;4.624;2023-04-03T02:10:23;103006.50;;;1.14;100.00
35151;BME280;55720;51.972;4.624;2023-04-03T02:12:49;103012.13;;;1.12;100.00
35151;BME280;55720;51.972;4.624;2023-04-03T02:15:14;103008.97;;;1.22;100.00
35151;BME280;55720;51.972;4.624;2023-04-03T02:17:40;103006.47;;;1.20;100.00
35151;BME280;55720;51.972;4.624;2023-04-03T02:20:06;103009.41;;;1.19;100.00
35151;BME280;55720;51.972;4.624;2023-04-03T02:22:31;102997.75;;;1.18;100.00
35151;BME280;55720;51.972;4.624;2023-04-03T02:24:57;103004.16;;;1.24;100.00
35151;BME280;55720;51.972;4.624;2023-04-03T02:27:23;103000.50;;;1.12;100.00
35151;BME280;55720;51.972;4.624;2023-04-03T02:29:49;102992.78;;;1.09;100.00
35151;BME280;55720;51.972;4.624;2023-04-03T02:32:14;102993.25;;;0.99;100.00
35151;BME280;55720;51.972;4.624;2023-04-03T02:34:40;103000.81;;;0.84;100.00
35151;BME280;55720;51.972;4.624;2023-04-03T02:37:05;102994.66;;;0.70;100.00
35151;BME280;55720;51.972;4.624;2023-04-03T02:39:31;102987.44;;;0.58;100.00
35151;BME280;55720;51.972;4.624;2023-04-03T02:41:56;102976.63;;;0.51;100.00
35151;BME280;55720;51.972;4.624;2023-04-03T02:44:23;102951.47;;;0.57;100.00
35151;BME280;55720;51.972;4.624;2023-04-03T02:46:49;102938.38;;;0.47;100.00
35151;BME280;55720;51.972;4.624;2023-04-03T02:49:14;102928.66;;;0.40;100.00
35151;BME280;55720;51.972;4.624;2023-04-03T02:51:41;102916.16;;;0.45;100.00
35151;BME280;55720;51.972;4.624;2023-04-03T02:54:06;102913.47;;;0.45;100.00
35151;BME280;55720;51.972;4.624;2023-04-03T02:56:32;102907.50;;;0.30;100.00
35151;BME280;55720;51.972;4.624;2023-04-03T02:58:57;102899.78;;;0.34;100.00
35151;BME280;55720;51.972;4.624;2023-04-03T03:01:23;102873.41;;;0.29;100.00
35151;BME280;55720;51.972;4.624;2023-04-03T03:03:48;102850.94;;;0.35;100.00
35151;BME280;55720;51.972;4.624;2023-04-03T03:06:16;102819.75;;;0.33;100.00
35151;BME280;55720;51.972;4.624;2023-04-03T03:08:42;102811.25;;;0.36;100.00
35151;BME280;55720;51.972;4.624;2023-04-03T03:11:07;102803.41;;;0.28;100.00
35151;BME280;55720;51.972;4.624;2023-04-03T03:13:34;102788.56;;;0.37;100.00
35151;BME280;55720;51.972;4.624;2023-04-03T03:15:59;102776.34;;;0.34;100.00
35151;BME280;55720;51.972;4.624;2023-04-03T03:18:25;102769.09;;;0.28;100.00
35151;BME280;55720;51.972;4.624;2023-04-03T03:20:52;102748.03;;;0.37;100.00
35151;BME280;55720;51.972;4.624;2023-04-03T03:23:21;102757.06;;;0.24;100.00
35151;BME280;55720;51.972;4.624;2023-04-03T03:25:47;102751.53;;;0.13;100.00
35151;BME280;55720;51.972;4.624;2023-04-03T03:28:13;102746.38;;;0.05;100.00
35151;BME280;55720;51.972;4.624;2023-04-03T03:30:39;102737.03;;;0.07;100.00
35151;BME280;55720;51.972;4.624;2023-04-03T03:33:04;102719.69;;;0.21;100.00
35151;BME280;55720;51.972;4.624;2023-04-03T03:35:30;102709.22;;;0.31;100.00
35151;BME280;55720;51.972;4.624;2023-04-03T03:37:55;102707.94;;;0.34;100.00
35151;BME280;55720;51.972;4.624;2023-04-03T03:40:21;102707.03;;;0.15;100.00
35151;BME280;55720;51.972;4.624;2023-04-03T03:42:46;102697.13;;;0.09;100.00
35151;BME280;55720;51.972;4.624;2023-04-03T03:45:12;102686.50;;;0.14;100.00
35151;BME280;55720;51.972;4.624;2023-04-03T03:47:37;102671.31;;;0.13;100.00
35151;BME280;55720;51.972;4.624;2023-04-03T03:50:03;102668.28;;;0.03;100.00
35151;BME280;55720;51.972;4.624;2023-04-03T03:52:28;102659.13;;;0.04;100.00
35151;BME280;55720;51.972;4.624;2023-04-03T03:54:55;102659.59;;;-0.06;100.00
35151;BME280;55720;51.972;4.624;2023-04-03T03:57:20;102658.72;;;0.07;100.00
35151;BME280;55720;51.972;4.624;2023-04-03T03:59:46;102642.66;;;0.12;100.00
35151;BME280;55720;51.972;4.624;2023-04-03T04:02:12;102628.31;;;0.12;100.00
35151;BME280;55720;51.972;4.624;2023-04-03T04:04:38;102615.06;;;0.10;100.00
35151;BME280;55720;51.972;4.624;2023-04-03T04:07:03;102603.88;;;0.07;100.00
35151;BME280;55720;51.972;4.624;2023-04-03T04:09:29;102605.09;;;0.04;100.00
35151;BME280;55720;51.972;4.624;2023-04-03T04:11:54;102597.50;;;-0.06;100.00
35151;BME280;55720;51.972;4.624;2023-04-03T04:14:19;102589.59;;;-0.01;100.00
35151;BME280;55720;51.972;4.624;2023-04-03T04:16:48;102573.78;;;0.03;100.00
35151;BME280;55720;51.972;4.624;2023-04-03T04:19:14;102574.16;;;0.07;100.00
35151;BME280;55720;51.972;4.624;2023-04-03T04:21:39;102566.66;;;0.09;100.00
35151;BME280;55720;51.972;4.624;2023-04-03T04:24:07;102561.69;;;0.06;100.00
35151;BME280;55720;51.972;4.624;2023-04-03T04:26:35;102561.47;;;0.07;100.00
35151;BME280;55720;51.972;4.624;2023-04-03T04:29:00;102545.88;;;0.09;100.00
35151;BME280;55720;51.972;4.624;2023-04-03T04:31:26;102529.50;;;0.04;100.00
35151;BME280;55720;51.972;4.624;2023-04-03T04:33:52;102523.06;;;0.05;100.00
35151;BME280;55720;51.972;4.624;2023-04-03T04:36:18;102523.31;;;-0.03;100.00
35151;BME280;55720;51.972;4.624;2023-04-03T04:38:43;102515.34;;;0.09;100.00
35151;BME280;55720;51.972;4.624;2023-04-03T04:41:09;102513.16;;;-0.01;100.00
35151;BME280;55720;51.972;4.624;2023-04-03T04:43:35;102512.13;;;0.00;100.00
35151;BME280;55720;51.972;4.624;2023-04-03T04:46:06;102523.31;;;-0.03;100.00
35151;BME280;55720;51.972;4.624;2023-04-03T04:48:34;102524.09;;;0.04;100.00
35151;BME280;55720;51.972;4.624;2023-04-03T04:51:03;102523.94;;;-0.01;100.00
35151;BME280;55720;51.972;4.624;2023-04-03T04:53:29;102524.81;;;-0.07;100.00
35151;BME280;55720;51.972;4.624;2023-04-03T04:55:55;102524.00;;;-0.08;100.00
35151;BME280;55720;51.972;4.624;2023-04-03T04:58:20;102518.16;;;-0.05;100.00
35151;BME280;55720;51.972;4.624;2023-04-03T05:00:46;102522.19;;;-0.14;100.00
35151;BME280;55720;51.972;4.624;2023-04-03T05:03:12;102526.59;;;-0.19;100.00
35151;BME280;55720;51.972;4.624;2023-04-03T05:05:37;102521.00;;;-0.24;100.00
35151;BME280;55720;51.972;4.624;2023-04-03T05:08:03;102520.56;;;-0.21;100.00
35151;BME280;55720;51.972;4.624;2023-04-03T05:10:29;102517.47;;;-0.25;100.00
35151;BME280;55720;51.972;4.624;2023-04-03T05:12:54;102509.63;;;-0.26;100.00
35151;BME280;55720;51.972;4.624;2023-04-03T05:15:20;102504.94;;;-0.37;100.00
35151;BME280;55720;51.972;4.624;2023-04-03T05:17:45;102502.56;;;-0.27;100.00
35151;BME280;55720;51.972;4.624;2023-04-03T05:20:12;102506.88;;;-0.20;100.00
35151;BME280;55720;51.972;4.624;2023-04-03T05:22:37;102505.16;;;-0.14;100.00
35151;BME280;55720;51.972;4.624;2023-04-03T05:25:04;102499.38;;;-0.18;100.00
35151;BME280;55720;51.972;4.624;2023-04-03T05:27:30;102494.78;;;-0.17;100.00
35151;BME280;55720;51.972;4.624;2023-04-03T05:29:56;102492.09;;;-0.17;100.00
35151;BME280;55720;51.972;4.624;2023-04-03T05:32:23;102497.66;;;-0.12;100.00
35151;BME280;55720;51.972;4.624;2023-04-03T05:34:49;102487.63;;;-0.05;100.00
35151;BME280;55720;51.972;4.624;2023-04-03T05:37:14;102488.78;;;0.06;100.00
35151;BME280;55720;51.972;4.624;2023-04-03T05:39:40;102484.59;;;0.10;100.00
35151;BME280;55720;51.972;4.624;2023-04-03T05:42:06;102478.06;;;0.17;100.00
35151;BME280;55720;51.972;4.624;2023-04-03T05:44:32;102482.56;;;0.23;100.00
35151;BME280;55720;51.972;4.624;2023-04-03T05:46:58;102482.28;;;0.31;100.00
35151;BME280;55720;51.972;4.624;2023-04-03T05:49:23;102475.59;;;0.34;100.00
35151;BME280;55720;51.972;4.624;2023-04-03T05:51:49;102473.53;;;0.54;100.00
35151;BME280;55720;51.972;4.624;2023-04-03T05:54:18;102466.72;;;0.81;100.00
35151;BME280;55720;51.972;4.624;2023-04-03T05:56:45;102482.16;;;0.92;100.00
35151;BME280;55720;51.972;4.624;2023-04-03T05:59:10;102479.25;;;0.94;100.00
35151;BME280;55720;51.972;4.624;2023-04-03T06:01:36;102485.88;;;1.10;100.00
35151;BME280;55720;51.972;4.624;2023-04-03T06:04:05;102473.19;;;1.63;100.00
35151;BME280;55720;51.972;4.624;2023-04-03T06:06:53;102488.66;;;1.63;100.00
35151;BME280;55720;51.972;4.624;2023-04-03T06:09:25;102503.84;;;1.75;100.00
35151;BME280;55720;51.972;4.624;2023-04-03T06:11:52;102514.81;;;2.15;100.00
35151;BME280;55720;51.972;4.624;2023-04-03T06:14:18;102533.81;;;2.90;100.00
35151;BME280;55720;51.972;4.624;2023-04-03T06:16:43;102567.16;;;3.14;100.00
35151;BME280;55720;51.972;4.624;2023-04-03T06:19:09;102610.97;;;2.82;100.00
35151;BME280;55720;51.972;4.624;2023-04-03T06:21:37;102657.97;;;2.18;100.00
35151;BME280;55720;51.972;4.624;2023-04-03T06:24:04;102688.88;;;1.99;100.00
35151;BME280;55720;51.972;4.624;2023-04-03T06:26:30;102706.22;;;1.98;100.00
35151;BME280;55720;51.972;4.624;2023-04-03T06:28:55;102714.81;;;1.95;100.00
35151;BME280;55720;51.972;4.624;2023-04-03T06:31:21;102723.66;;;2.02;100.00
35151;BME280;55720;51.972;4.624;2023-04-03T06:33:46;102718.66;;;2.70;100.00
35151;BME280;55720;51.972;4.624;2023-04-03T06:36:12;102707.63;;;5.15;100.00
35151;BME280;55720;51.972;4.624;2023-04-03T06:38:37;102735.97;;;8.57;100.00
35151;BME280;55720;51.972;4.624;2023-04-03T06:41:03;102916.44;;;10.30;100.00
35151;BME280;55720;51.972;4.624;2023-04-03T06:43:28;103065.63;;;11.49;100.00
35151;BME280;55720;51.972;4.624;2023-04-03T06:45:56;103181.78;;;12.97;100.00
35151;BME280;55720;51.972;4.624;2023-04-03T06:48:21;103287.66;;;14.01;100.00
35151;BME280;55720;51.972;4.624;2023-04-03T06:50:47;103285.03;;;13.91;100.00
35151;BME280;55720;51.972;4.624;2023-04-03T06:53:12;103281.19;;;14.66;100.00
35151;BME280;55720;51.972;4.624;2023-04-03T06:55:37;103273.19;;;14.09;100.00
35151;BME280;55720;51.972;4.624;2023-04-03T06:58:03;103277.97;;;14.03;100.00
35151;BME280;55720;51.972;4.624;2023-04-03T07:00:29;103268.81;;;13.60;100.00
35151;BME280;55720;51.972;4.624;2023-04-03T07:02:55;103285.69;;;11.64;100.00
35151;BME280;55720;51.972;4.624;2023-04-03T07:05:23;103277.97;;;13.79;100.00
35151;BME280;55720;51.972;4.624;2023-04-03T07:07:50;103283.56;;;13.51;100.00
35151;BME280;55720;51.972;4.624;2023-04-03T07:10:15;103268.97;;;13.93;100.00
35151;BME280;55720;51.972;4.624;2023-04-03T07:12:41;103298.19;;;11.06;100.00
35151;BME280;55720;51.972;4.624;2023-04-03T07:15:07;103313.75;;;11.61;100.00
35151;BME280;55720;51.972;4.624;2023-04-03T07:17:33;103311.25;;;11.70;100.00
35151;BME280;55720;51.972;4.624;2023-04-03T07:19:58;103321.22;;;11.46;100.00
35151;BME280;55720;51.972;4.624;2023-04-03T07:22:24;103325.03;;;11.75;100.00
35151;BME280;55720;51.972;4.624;2023-04-03T07:24:49;103330.81;;;10.47;100.00
35151;BME280;55720;51.972;4.624;2023-04-03T07:27:15;103351.91;;;9.69;100.00
35151;BME280;55720;51.972;4.624;2023-04-03T07:29:44;103353.13;;;11.52;100.00
35151;BME280;55720;51.972;4.624;2023-04-03T07:32:10;103345.47;;;9.54;100.00
35151;BME280;55720;51.972;4.624;2023-04-03T07:34:36;103366.66;;;8.95;100.00
35151;BME280;55720;51.972;4.624;2023-04-03T07:37:02;103368.09;;;9.02;100.00
35151;BME280;55720;51.972;4.624;2023-04-03T07:39:28;103381.13;;;8.90;100.00
35151;BME280;55720;51.972;4.624;2023-04-03T07:41:54;103388.38;;;8.74;100.00
35151;BME280;55720;51.972;4.624;2023-04-03T07:44:23;103393.16;;;7.59;100.00
35151;BME280;55720;51.972;4.624;2023-04-03T07:46:48;103399.84;;;7.68;100.00
35151;BME280;55720;51.972;4.624;2023-04-03T07:49:16;103400.69;;;8.28;100.00
35151;BME280;55720;51.972;4.624;2023-04-03T07:51:43;103406.47;;;7.72;100.00
35151;BME280;55720;51.972;4.624;2023-04-03T07:54:09;103409.81;;;8.56;100.00
35151;BME280;55720;51.972;4.624;2023-04-03T07:56:34;103393.88;;;9.75;100.00
35151;BME280;55720;51.972;4.624;2023-04-03T07:59:00;103390.19;;;9.54;100.00
35151;BME280;55720;51.972;4.624;2023-04-03T08:01:25;103384.09;;;9.47;100.00
35151;BME280;55720;51.972;4.624;2023-04-03T08:03:51;103384.28;;;10.19;100.00
35151;BME280;55720;51.972;4.624;2023-04-03T08:06:16;103392.53;;;9.40;100.00
35151;BME280;55720;51.972;4.624;2023-04-03T08:08:42;103384.25;;;10.14;100.00
35151;BME280;55720;51.972;4.624;2023-04-03T08:11:07;103364.16;;;11.31;100.00
35151;BME280;55720;51.972;4.624;2023-04-03T08:13:33;103352.91;;;12.32;100.00
35151;BME280;55720;51.972;4.624;2023-04-03T08:16:20;103342.66;;;11.44;100.00
35151;BME280;55720;51.972;4.624;2023-04-03T08:18:47;103342.19;;;12.70;100.00
35151;BME280;55720;51.972;4.624;2023-04-03T08:21:12;103326.69;;;15.71;100.00
35151;BME280;55720;51.972;4.624;2023-04-03T08:23:39;103321.94;;;13.52;100.00
35151;BME280;55720;51.972;4.624;2023-04-03T08:26:11;103324.44;;;13.49;100.00
35151;BME280;55720;51.972;4.624;2023-04-03T08:28:38;103317.34;;;13.09;100.00
35151;BME280;55720;51.972;4.624;2023-04-03T08:31:08;103348.34;;;13.58;100.00
35151;BME280;55720;51.972;4.624;2023-04-03T08:33:36;103345.75;;;12.70;100.00
35151;BME280;55720;51.972;4.624;2023-04-03T08:36:07;103350.19;;;12.66;100.00
35151;BME280;55720;51.972;4.624;2023-04-03T08:38:33;103328.50;;;13.80;100.00
35151;BME280;55720;51.972;4.624;2023-04-03T08:46:47;103311.63;;;15.77;100.00
35151;BME280;55720;51.972;4.624;2023-04-03T08:49:31;103311.69;;;15.12;100.00
35151;BME280;55720;51.972;4.624;2023-04-03T08:52:04;103337.38;;;12.86;100.00
35151;BME280;55720;51.972;4.624;2023-04-03T08:54:34;103323.00;;;12.94;100.00
35151;BME280;55720;51.972;4.624;2023-04-03T08:57:04;103336.81;;;12.89;100.00
35151;BME280;55720;51.972;4.624;2023-04-03T08:59:34;103328.72;;;14.07;100.00
35151;BME280;55720;51.972;4.624;2023-04-03T09:02:03;103335.00;;;11.35;100.00
35151;BME280;55720;51.972;4.624;2023-04-03T09:04:32;103336.38;;;12.32;100.00
35151;BME280;55720;51.972;4.624;2023-04-03T09:07:06;103338.84;;;11.50;100.00
35151;BME280;55720;51.972;4.624;2023-04-03T09:09:40;103339.66;;;11.40;100.00
35151;BME280;55720;51.972;4.624;2023-04-03T09:12:17;103344.63;;;11.08;100.00
35151;BME280;55720;51.972;4.624;2023-04-03T09:20:55;103341.84;;;11.53;100.00
35151;BME280;55720;51.972;4.624;2023-04-03T09:23:53;103344.50;;;10.27;100.00
35151;BME280;55720;51.972;4.624;2023-04-03T09:26:42;103352.63;;;10.07;100.00
35151;BME280;55720;51.972;4.624;2023-04-03T09:29:17;103366.44;;;9.75;100.00
35151;BME280;55720;51.972;4.624;2023-04-03T09:31:44;103369.50;;;9.78;100.00
35151;BME280;55720;51.972;4.624;2023-04-03T09:34:27;103360.94;;;8.96;100.00
35151;BME280;55720;51.972;4.624;2023-04-03T09:36:55;103371.31;;;8.94;100.00
35151;BME280;55720;51.972;4.624;2023-04-03T09:39:27;103366.34;;;8.91;100.00
35151;BME280;55720;51.972;4.624;2023-04-03T09:44:35;103355.28;;;8.54;100.00
35151;BME280;55720;51.972;4.624;2023-04-03T09:49:43;103350.78;;;8.21;100.00
35151;BME280;55720;51.972;4.624;2023-04-03T09:52:25;103344.66;;;8.58;100.00
35151;BME280;55720;51.972;4.624;2023-04-03T09:54:51;103325.06;;;8.71;100.00
35151;BME280;55720;51.972;4.624;2023-04-03T09:57:17;103331.38;;;8.71;100.00
35151;BME280;55720;51.972;4.624;2023-04-03T09:59:47;103321.50;;;9.02;100.00
35151;BME280;55720;51.972;4.624;2023-04-03T10:02:39;103325.69;;;9.10;100.00
35151;BME280;55720;51.972;4.624;2023-04-03T10:05:33;103316.25;;;8.64;100.00
35151;BME280;55720;51.972;4.624;2023-04-03T10:08:22;103302.34;;;8.70;100.00
35151;BME280;55720;51.972;4.624;2023-04-03T10:11:09;103285.66;;;9.09;100.00
35151;BME280;55720;51.972;4.624;2023-04-03T10:13:35;103290.00;;;9.05;100.00
35151;BME280;55720;51.972;4.624;2023-04-03T10:16:08;103288.13;;;9.47;100.00
35151;BME280;55720;51.972;4.624;2023-04-03T10:21:58;103297.34;;;9.31;100.00
35151;BME280;55720;51.972;4.624;2023-04-03T10:27:38;103270.88;;;9.10;100.00
35151;BME280;55720;51.972;4.624;2023-04-03T10:36:01;103241.66;;;9.25;100.00
35151;BME280;55720;51.972;4.624;2023-04-03T10:41:08;103252.41;;;9.37;100.00
35151;BME280;55720;51.972;4.624;2023-04-03T10:46:36;103234.44;;;9.66;94.76
35151;BME280;55720;51.972;4.624;2023-04-03T10:52:14;103237.47;;;9.70;93.72
35151;BME280;55720;51.972;4.624;2023-04-03T10:54:53;103239.22;;;9.96;97.26
35151;BME280;55720;51.972;4.624;2023-04-03T10:57:22;103239.78;;;10.03;95.33
35151;BME280;55720;51.972;4.624;2023-04-03T11:00:07;103227.69;;;9.99;90.78
35151;BME280;55720;51.972;4.624;2023-04-03T11:02:44;103231.78;;;9.92;88.19
35151;BME280;55720;51.972;4.624;2023-04-03T11:05:40;103230.66;;;9.72;86.31
35151;BME280;55720;51.972;4.624;2023-04-03T11:08:11;103226.25;;;9.71;87.05
35151;BME280;55720;51.972;4.624;2023-04-03T11:10:42;103222.16;;;9.79;88.02
35151;BME280;55720;51.972;4.624;2023-04-03T11:13:14;103222.69;;;9.81;86.47
35151;BME280;55720;51.972;4.624;2023-04-03T11:15:42;103216.09;;;9.72;82.83
35151;BME280;55720;51.972;4.624;2023-04-03T11:18:19;103215.31;;;9.92;83.88
35151;BME280;55720;51.972;4.624;2023-04-03T11:21:07;103212.44;;;10.23;82.55
35151;BME280;55720;51.972;4.624;2023-04-03T11:23:36;103199.81;;;10.48;80.53
35151;BME280;55720;51.972;4.624;2023-04-03T11:26:11;103202.16;;;9.99;75.21
35151;BME280;55720;51.972;4.624;2023-04-03T11:28:37;103196.81;;;9.52;72.26
35151;BME280;55720;51.972;4.624;2023-04-03T11:36:45;103179.72;;;10.12;71.49
35151;BME280;55720;51.972;4.624;2023-04-03T11:39:34;103178.38;;;10.60;72.61
35151;BME280;55720;51.972;4.624;2023-04-03T11:42:15;103175.84;;;9.98;69.21
35151;BME280;55720;51.972;4.624;2023-04-03T11:44:42;103174.53;;;10.46;72.41
35151;BME280;55720;51.972;4.624;2023-04-03T11:47:09;103163.00;;;10.28;67.11
35151;BME280;55720;51.972;4.624;2023-04-03T11:50:03;103142.13;;;10.17;63.25
35151;BME280;55720;51.972;4.624;2023-04-03T12:05:48;103164.38;;;10.41;67.08
35151;BME280;55720;51.972;4.624;2023-04-03T12:08:27;103160.81;;;10.56;66.36
35151;BME280;55720;51.972;4.624;2023-04-03T12:11:28;103162.09;;;10.99;70.01
35151;BME280;55720;51.972;4.624;2023-04-03T12:14:04;103147.03;;;10.76;66.12
35151;BME280;55720;51.972;4.624;2023-04-03T12:40:19;103150.34;;;10.58;69.61
35151;BME280;55720;51.972;4.624;2023-04-03T12:48:26;103133.34;;;10.56;67.88
35151;BME280;55720;51.972;4.624;2023-04-03T12:50:54;103136.00;;;10.86;70.82
35151;BME280;55720;51.972;4.624;2023-04-03T12:53:28;103138.22;;;10.84;69.41
35151;BME280;55720;51.972;4.624;2023-04-03T12:56:20;103129.50;;;10.52;67.16
35151;BME280;55720;51.972;4.624;2023-04-03T12:58:47;103132.47;;;10.60;70.41
35151;BME280;55720;51.972;4.624;2023-04-03T13:01:16;103137.66;;;10.82;71.34
35151;BME280;55720;51.972;4.624;2023-04-03T13:03:45;103119.75;;;11.00;70.86
35151;BME280;55720;51.972;4.624;2023-04-03T13:06:22;103128.78;;;11.20;75.15
35151;BME280;55720;51.972;4.624;2023-04-03T13:08:56;103127.69;;;11.16;76.58
35151;BME280;55720;51.972;4.624;2023-04-03T13:11:36;103117.78;;;11.20;75.27
35151;BME280;55720;51.972;4.624;2023-04-03T13:14:15;103119.13;;;11.18;73.78
35151;BME280;55720;51.972;4.624;2023-04-03T13:16:42;103109.22;;;11.22;72.40
35151;BME280;55720;51.972;4.624;2023-04-03T13:19:16;103114.59;;;10.83;72.40
35151;BME280;55720;51.972;4.624;2023-04-03T13:21:42;103117.59;;;10.86;76.61
35151;BME280;55720;51.972;4.624;2023-04-03T13:24:09;103132.59;;;11.24;82.71
35151;BME280;55720;51.972;4.624;2023-04-03T13:26:36;103118.91;;;11.09;77.05
35151;BME280;55720;51.972;4.624;2023-04-03T13:29:21;103111.91;;;11.42;78.51
35151;BME280;55720;51.972;4.624;2023-04-03T13:31:53;103108.81;;;11.54;75.24
35151;BME280;55720;51.972;4.624;2023-04-03T13:34:19;103103.75;;;11.17;73.26
35151;BME280;55720;51.972;4.624;2023-04-03T13:36:58;103118.38;;;11.61;80.34
35151;BME280;55720;51.972;4.624;2023-04-03T13:41:52;103108.28;;;10.72;71.45
35151;BME280;55720;51.972;4.624;2023-04-03T13:46:54;103109.94;;;11.48;72.26
35151;BME280;55720;51.972;4.624;2023-04-03T13:51:52;103087.97;;;11.38;71.49
35151;BME280;55720;51.972;4.624;2023-04-03T13:54:39;103099.94;;;11.13;73.29
35151;BME280;55720;51.972;4.624;2023-04-03T13:57:12;103094.56;;;11.42;72.96
35151;BME280;55720;51.972;4.624;2023-04-03T13:59:39;103102.63;;;11.28;73.25
35151;BME280;55720;51.972;4.624;2023-04-03T14:04:54;103090.22;;;11.30;72.96
35151;BME280;55720;51.972;4.624;2023-04-03T14:07:18;103095.72;;;11.35;74.13
35151;BME280;55720;51.972;4.624;2023-04-03T14:09:46;103087.13;;;11.42;72.93
35151;BME280;55720;51.972;4.624;2023-04-03T14:12:26;103088.88;;;11.18;71.93
35151;BME280;55720;51.972;4.624;2023-04-03T14:14:52;103073.56;;;11.07;72.32
35151;BME280;55720;51.972;4.624;2023-04-03T14:17:24;103076.09;;;10.88;72.62
35151;BME280;55720;51.972;4.624;2023-04-03T14:19:51;103084.09;;;10.84;74.97
35151;BME280;55720;51.972;4.624;2023-04-03T14:22:21;103079.59;;;11.04;74.47
35151;BME280;55720;51.972;4.624;2023-04-03T14:24:48;103075.84;;;10.74;72.61
35151;BME280;55720;51.972;4.624;2023-04-03T14:27:27;103089.63;;;11.39;77.75
35151;BME280;55720;51.972;4.624;2023-04-03T14:29:54;103081.75;;;11.17;75.07
35151;BME280;55720;51.972;4.624;2023-04-03T14:32:22;103074.97;;;10.94;74.57
35151;BME280;55720;51.972;4.624;2023-04-03T14:34:49;103071.03;;;11.15;75.86
35151;BME280;55720;51.972;4.624;2023-04-03T14:37:26;103057.19;;;10.76;72.12
35151;BME280;55720;51.972;4.624;2023-04-03T14:39:53;103071.69;;;10.92;76.23
35151;BME280;55720;51.972;4.624;2023-04-03T14:42:25;103068.28;;;11.20;75.72